createdAt,value
2018-09-27T00:00:20.358Z,8.80
2018-09-27T00:02:48.217Z,8.80
2018-09-27T00:05:16.271Z,8.70
2018-09-27T00:07:44.245Z,8.70
2018-09-27T00:10:12.141Z,8.70
2018-09-27T00:12:40.069Z,8.70
2018-09-27T00:15:07.985Z,8.70
2018-09-27T00:17:35.989Z,8.70
2018-09-27T00:20:03.955Z,8.70
2018-09-27T00:22:31.869Z,8.70
2018-09-27T00:24:59.830Z,8.70
2018-09-27T00:27:27.794Z,8.60
2018-09-27T00:29:56.513Z,8.70
2018-09-27T00:32:24.819Z,8.60
2018-09-27T00:34:52.745Z,8.60
2018-09-27T00:37:20.705Z,8.60
2018-09-27T00:39:48.649Z,8.60
2018-09-27T00:42:16.585Z,8.50
2018-09-27T00:44:44.497Z,8.60
2018-09-27T00:47:12.425Z,8.60
2018-09-27T00:49:40.325Z,8.50
2018-09-27T00:52:08.261Z,8.60
2018-09-27T00:54:36.457Z,8.40
2018-09-27T00:57:04.565Z,8.50
2018-09-27T00:59:32.578Z,8.50
2018-09-27T01:02:01.386Z,8.40
2018-09-27T01:04:29.597Z,8.40
2018-09-27T01:06:57.685Z,8.30
2018-09-27T01:09:25.825Z,8.30
2018-09-27T01:11:53.919Z,8.40
2018-09-27T01:14:22.038Z,8.30
2018-09-27T01:16:51.058Z,8.30
2018-09-27T01:19:19.152Z,8.30
2018-09-27T01:21:47.395Z,8.20
2018-09-27T01:24:15.572Z,8.20
2018-09-27T01:26:43.702Z,8.30
2018-09-27T01:29:11.825Z,8.40
2018-09-27T01:31:40.710Z,8.40
2018-09-27T01:34:08.912Z,8.30
2018-09-27T01:36:37.093Z,8.20
2018-09-27T01:39:06.165Z,8.20
2018-09-27T01:41:34.513Z,8.20
2018-09-27T01:44:02.738Z,8.10
2018-09-27T01:46:30.830Z,8.10
2018-09-27T01:48:59.005Z,8.10
2018-09-27T01:51:26.999Z,8.10
2018-09-27T01:53:55.721Z,8.10
2018-09-27T01:56:23.815Z,8.10
2018-09-27T01:58:52.044Z,8.10
2018-09-27T02:01:20.147Z,8.00
2018-09-27T02:03:48.292Z,8.00
2018-09-27T02:06:16.445Z,8.00
2018-09-27T02:08:45.649Z,7.90
2018-09-27T02:11:14.609Z,7.80
2018-09-27T02:13:42.800Z,7.80
2018-09-27T02:16:10.864Z,7.90
2018-09-27T02:18:38.994Z,7.90
2018-09-27T02:21:07.173Z,7.90
2018-09-27T02:23:35.549Z,7.90
2018-09-27T02:26:03.831Z,7.90
2018-09-27T02:28:32.249Z,7.80
2018-09-27T02:31:00.866Z,7.80
2018-09-27T02:33:28.963Z,7.90
2018-09-27T02:35:57.241Z,7.90
2018-09-27T02:38:25.444Z,7.90
2018-09-27T02:40:53.532Z,7.90
2018-09-27T02:43:22.500Z,7.90
2018-09-27T02:45:51.094Z,7.90
2018-09-27T02:48:19.178Z,8.00
2018-09-27T02:50:47.653Z,7.90
2018-09-27T02:53:15.806Z,8.00
2018-09-27T02:55:43.965Z,7.90
2018-09-27T02:58:12.189Z,7.90
2018-09-27T03:00:40.342Z,7.80
2018-09-27T03:03:08.809Z,7.80
2018-09-27T03:05:37.008Z,7.80
2018-09-27T03:08:05.148Z,7.70
2018-09-27T03:10:33.353Z,7.70
2018-09-27T03:13:01.579Z,7.80
2018-09-27T03:15:29.717Z,7.80
2018-09-27T03:17:57.859Z,7.70
2018-09-27T03:20:25.993Z,7.80
2018-09-27T03:22:54.150Z,7.80
2018-09-27T03:25:22.182Z,7.70
2018-09-27T03:27:50.292Z,7.70
2018-09-27T03:30:18.507Z,7.80
2018-09-27T03:32:46.711Z,7.80
2018-09-27T03:35:14.790Z,7.70
2018-09-27T03:37:42.899Z,7.70
2018-09-27T03:40:12.044Z,7.70
2018-09-27T03:42:40.181Z,7.60
2018-09-27T03:45:08.252Z,7.60
2018-09-27T03:47:36.644Z,7.50
2018-09-27T03:50:04.853Z,7.50
2018-09-27T03:52:33.759Z,7.40
2018-09-27T03:55:01.879Z,7.40
2018-09-27T03:57:30.118Z,7.40
2018-09-27T03:59:58.189Z,7.40
2018-09-27T04:02:26.440Z,7.40
2018-09-27T04:04:54.651Z,7.40
2018-09-27T04:07:22.759Z,7.50
2018-09-27T04:09:50.897Z,7.50
2018-09-27T04:12:19.053Z,7.40
2018-09-27T04:14:47.021Z,7.40
2018-09-27T04:17:15.113Z,7.40
2018-09-27T04:19:43.374Z,7.30
2018-09-27T04:22:11.546Z,7.20
2018-09-27T04:24:39.690Z,7.30
2018-09-27T04:27:07.917Z,7.40
2018-09-27T04:29:36.041Z,7.30
2018-09-27T04:32:04.090Z,7.30
2018-09-27T04:34:32.217Z,7.50
2018-09-27T04:37:00.292Z,7.40
2018-09-27T04:39:29.513Z,7.40
2018-09-27T04:41:57.625Z,7.50
2018-09-27T04:44:25.669Z,7.50
2018-09-27T04:46:53.867Z,7.40
2018-09-27T04:49:22.157Z,7.40
2018-09-27T04:51:50.223Z,7.40
2018-09-27T04:54:18.340Z,7.50
2018-09-27T04:56:46.363Z,7.40
2018-09-27T04:59:14.554Z,7.40
2018-09-27T05:01:42.602Z,7.30
2018-09-27T05:04:10.700Z,7.40
2018-09-27T05:06:38.718Z,7.40
2018-09-27T05:09:07.525Z,7.40
2018-09-27T05:11:35.590Z,7.40
2018-09-27T05:14:03.818Z,7.40
2018-09-27T05:16:31.865Z,7.40
2018-09-27T05:19:00.054Z,7.40
2018-09-27T05:21:28.997Z,7.60
2018-09-27T05:23:57.059Z,7.60
2018-09-27T05:26:25.444Z,7.60
2018-09-27T05:28:53.601Z,7.60
2018-09-27T05:31:21.660Z,7.60
2018-09-27T05:33:49.806Z,7.70
2018-09-27T05:36:17.925Z,7.80
2018-09-27T05:38:45.986Z,7.70
2018-09-27T05:41:14.095Z,7.80
2018-09-27T05:43:42.217Z,7.80
2018-09-27T05:46:10.442Z,7.90
2018-09-27T05:48:38.663Z,7.90
2018-09-27T05:51:06.745Z,7.90
2018-09-27T05:53:34.843Z,7.90
2018-09-27T05:56:03.040Z,8.00
2018-09-27T05:58:31.052Z,8.00
2018-09-27T06:00:59.245Z,8.00
2018-09-27T06:03:27.306Z,8.00
2018-09-27T06:05:55.434Z,8.10
2018-09-27T06:08:23.486Z,8.10
2018-09-27T06:10:51.688Z,8.20
2018-09-27T06:13:19.668Z,8.20
2018-09-27T06:15:47.702Z,8.20
2018-09-27T06:18:15.762Z,8.20
2018-09-27T06:20:43.815Z,8.20
2018-09-27T06:23:11.930Z,8.20
2018-09-27T06:25:39.926Z,8.30
2018-09-27T06:28:07.920Z,8.30
2018-09-27T06:30:36.044Z,8.40
2018-09-27T06:33:04.395Z,8.40
2018-09-27T06:35:32.462Z,8.40
2018-09-27T06:38:00.581Z,8.40
2018-09-27T06:40:28.740Z,8.40
2018-09-27T06:42:56.962Z,8.50
2018-09-27T06:45:24.999Z,8.50
2018-09-27T06:47:53.649Z,8.50
2018-09-27T06:50:21.746Z,8.60
2018-09-27T06:52:50.289Z,8.60
2018-09-27T06:55:18.638Z,8.70
2018-09-27T06:57:46.683Z,8.70
2018-09-27T07:00:14.675Z,8.70
2018-09-27T07:02:42.812Z,8.80
2018-09-27T07:05:10.978Z,8.90
2018-09-27T07:07:39.043Z,8.90
2018-09-27T07:10:07.118Z,8.90
2018-09-27T07:12:35.249Z,8.90
2018-09-27T07:15:03.292Z,8.90
2018-09-27T07:17:31.266Z,8.90
2018-09-27T07:19:59.350Z,9.00
2018-09-27T07:22:27.496Z,9.00
2018-09-27T07:24:55.555Z,9.00
2018-09-27T07:27:23.738Z,9.10
2018-09-27T07:29:51.936Z,9.20
2018-09-27T07:32:19.986Z,9.40
2018-09-27T07:34:48.090Z,9.50
2018-09-27T07:37:16.645Z,9.60
2018-09-27T07:39:46.042Z,9.60
2018-09-27T07:42:14.162Z,9.70
2018-09-27T07:44:42.286Z,9.80
2018-09-27T07:47:11.586Z,9.80
2018-09-27T07:49:39.679Z,9.90
2018-09-27T07:52:07.838Z,9.90
2018-09-27T07:54:36.824Z,10.00
2018-09-27T07:57:04.859Z,9.90
2018-09-27T07:59:32.894Z,9.80
2018-09-27T08:02:02.052Z,9.90
2018-09-27T08:04:30.336Z,10.00
2018-09-27T08:06:58.618Z,10.10
2018-09-27T08:09:27.386Z,10.10
2018-09-27T08:11:55.595Z,10.20
2018-09-27T08:14:23.558Z,10.30
2018-09-27T08:16:51.645Z,10.40
2018-09-27T08:19:19.703Z,10.50
2018-09-27T08:21:47.911Z,10.60
2018-09-27T08:24:16.039Z,10.50
2018-09-27T08:26:44.210Z,10.50
2018-09-27T08:29:12.338Z,10.50
2018-09-27T08:31:40.446Z,10.60
2018-09-27T08:34:09.717Z,10.60
2018-09-27T08:36:37.777Z,10.70
2018-09-27T08:39:07.635Z,10.70
2018-09-27T08:41:35.886Z,10.70
2018-09-27T08:44:04.100Z,10.80
2018-09-27T08:46:32.269Z,10.80
2018-09-27T08:49:00.319Z,10.80
2018-09-27T08:51:28.593Z,10.90
2018-09-27T08:53:56.762Z,11.00
2018-09-27T08:56:25.814Z,10.90
2018-09-27T08:58:54.102Z,10.80
2018-09-27T09:01:22.312Z,10.90
2018-09-27T09:03:50.478Z,10.90
2018-09-27T09:06:18.550Z,11.00
2018-09-27T09:08:46.821Z,11.00
2018-09-27T09:11:15.059Z,10.90
2018-09-27T09:13:44.072Z,10.90
2018-09-27T09:16:12.163Z,10.80
2018-09-27T09:18:40.238Z,10.80
2018-09-27T09:21:09.302Z,10.80
2018-09-27T09:23:37.826Z,10.80
2018-09-27T09:26:06.055Z,10.80
2018-09-27T09:28:34.308Z,10.80
2018-09-27T09:31:02.331Z,10.80
2018-09-27T09:33:30.500Z,10.90
2018-09-27T09:35:58.696Z,10.90
2018-09-27T09:38:26.850Z,11.00
2018-09-27T09:40:55.674Z,11.00
2018-09-27T09:43:23.737Z,11.10
2018-09-27T09:45:51.916Z,11.10
2018-09-27T09:48:20.954Z,11.20
2018-09-27T09:50:49.232Z,11.20
2018-09-27T09:53:17.393Z,11.30
2018-09-27T09:55:45.534Z,11.30
2018-09-27T09:58:13.780Z,11.30
2018-09-27T10:00:41.949Z,11.30
2018-09-27T10:03:10.046Z,11.40
2018-09-27T10:05:38.270Z,11.30
2018-09-27T10:08:06.341Z,11.40
2018-09-27T10:10:35.428Z,11.50
2018-09-27T10:13:03.726Z,11.40
2018-09-27T10:15:31.917Z,11.50
2018-09-27T10:18:00.264Z,11.70
2018-09-27T10:20:28.414Z,11.50
2018-09-27T10:22:56.450Z,11.50
2018-09-27T10:25:24.632Z,11.60
2018-09-27T10:27:52.677Z,11.50
2018-09-27T10:30:21.193Z,11.40
2018-09-27T10:32:49.542Z,11.60
2018-09-27T10:35:17.726Z,11.70
2018-09-27T10:37:45.906Z,11.80
2018-09-27T10:40:14.175Z,11.80
2018-09-27T10:42:42.434Z,11.90
2018-09-27T10:45:10.506Z,11.90
2018-09-27T10:47:38.592Z,11.90
2018-09-27T10:50:06.892Z,11.90
2018-09-27T10:52:34.933Z,11.80
2018-09-27T10:55:03.011Z,11.90
2018-09-27T10:57:31.158Z,11.90
2018-09-27T10:59:59.493Z,12.00
2018-09-27T11:02:27.646Z,12.00
2018-09-27T11:04:55.758Z,11.90
2018-09-27T11:07:23.999Z,11.70
2018-09-27T11:09:52.138Z,11.80
2018-09-27T11:12:20.200Z,11.80
2018-09-27T11:14:48.331Z,11.70
2018-09-27T11:17:16.391Z,11.80
2018-09-27T11:19:44.629Z,11.70
2018-09-27T11:22:12.739Z,11.70
2018-09-27T11:24:40.819Z,11.60
2018-09-27T11:27:09.510Z,11.50
2018-09-27T11:29:42.847Z,11.50
2018-09-27T11:32:16.087Z,11.40
2018-09-27T11:34:44.134Z,11.50
2018-09-27T11:37:12.274Z,11.60
2018-09-27T11:39:41.313Z,11.40
2018-09-27T11:42:09.482Z,11.60
2018-09-27T11:44:37.586Z,11.50
2018-09-27T11:47:05.873Z,11.50
2018-09-27T11:49:33.955Z,11.50
2018-09-27T11:52:02.126Z,11.60
2018-09-27T11:54:30.370Z,11.60
2018-09-27T11:56:58.506Z,11.70
2018-09-27T11:59:26.764Z,11.70
2018-09-27T12:01:55.004Z,11.60
2018-09-27T12:04:23.050Z,11.70
2018-09-27T12:06:51.154Z,11.70
2018-09-27T12:09:19.246Z,11.70
2018-09-27T12:11:47.330Z,11.70
2018-09-27T12:14:15.791Z,11.70
2018-09-27T12:16:44.063Z,11.60
2018-09-27T12:19:12.079Z,11.70
2018-09-27T12:21:40.172Z,11.70
2018-09-27T12:24:08.958Z,11.70
2018-09-27T12:26:36.986Z,11.70
2018-09-27T12:29:05.127Z,11.70
2018-09-27T12:31:34.075Z,11.70
2018-09-27T12:34:02.299Z,11.80
2018-09-27T12:36:30.537Z,11.70
2018-09-27T12:38:59.313Z,11.90
2018-09-27T12:41:27.789Z,11.80
2018-09-27T12:43:57.013Z,11.90
2018-09-27T12:46:25.155Z,12.00
2018-09-27T12:48:53.996Z,12.00
2018-09-27T12:51:22.182Z,12.00
2018-09-27T12:53:50.160Z,11.90
2018-09-27T12:56:21.669Z,11.90
2018-09-27T12:58:51.134Z,11.90
2018-09-27T13:01:19.186Z,11.80
2018-09-27T13:03:47.423Z,11.80
2018-09-27T13:06:16.748Z,11.90
2018-09-27T13:08:45.392Z,11.80
2018-09-27T13:11:13.463Z,11.80
2018-09-27T13:13:41.537Z,11.90
2018-09-27T13:16:09.746Z,12.00
2018-09-27T13:18:40.281Z,12.10
2018-09-27T13:21:08.552Z,12.10
2018-09-27T13:23:36.699Z,12.00
2018-09-27T13:26:04.849Z,12.00
2018-09-27T13:28:33.014Z,11.90
2018-09-27T13:31:01.171Z,11.90
2018-09-27T13:33:29.382Z,11.80
2018-09-27T13:35:57.700Z,11.80
2018-09-27T13:38:25.952Z,11.80
2018-09-27T13:40:54.124Z,11.70
2018-09-27T13:43:22.263Z,11.70
2018-09-27T13:45:50.382Z,11.60
2018-09-27T13:48:18.630Z,11.50
2018-09-27T13:50:46.991Z,11.60
2018-09-27T13:53:15.075Z,11.40
2018-09-27T13:55:43.085Z,11.40
2018-09-27T13:58:11.145Z,11.40
2018-09-27T14:00:39.234Z,11.30
2018-09-27T14:03:08.175Z,11.30
2018-09-27T14:05:36.463Z,11.20
2018-09-27T14:08:04.515Z,11.20
2018-09-27T14:10:32.671Z,11.20
2018-09-27T14:13:00.777Z,11.20
2018-09-27T14:15:28.919Z,11.20
2018-09-27T14:17:57.055Z,11.20
2018-09-27T14:20:25.103Z,11.10
2018-09-27T14:22:53.533Z,11.10
2018-09-27T14:25:21.645Z,11.10
2018-09-27T14:27:49.920Z,11.00
2018-09-27T14:30:17.951Z,11.00
2018-09-27T14:32:46.324Z,10.90
2018-09-27T14:35:14.561Z,11.00
2018-09-27T14:37:43.606Z,11.00
2018-09-27T14:40:11.838Z,10.90
2018-09-27T14:42:40.097Z,10.90
2018-09-27T14:45:08.162Z,10.80
2018-09-27T14:47:36.427Z,10.80
2018-09-27T14:50:04.875Z,10.80
2018-09-27T14:52:33.061Z,10.70
2018-09-27T14:55:01.825Z,10.60
2018-09-27T14:57:29.874Z,10.50
2018-09-27T14:59:58.061Z,10.50
2018-09-27T15:02:26.265Z,10.40
2018-09-27T15:04:54.348Z,10.40
2018-09-27T15:07:22.494Z,10.40
2018-09-27T15:09:50.714Z,10.20
2018-09-27T15:12:18.864Z,10.10
2018-09-27T15:14:47.060Z,10.00
2018-09-27T15:17:15.238Z,10.00
2018-09-27T15:19:43.867Z,9.90
2018-09-27T15:22:11.980Z,10.00
2018-09-27T15:24:40.093Z,9.90
2018-09-27T15:27:08.243Z,9.90
2018-09-27T15:29:36.302Z,9.80
2018-09-27T15:32:04.517Z,9.70
2018-09-27T15:34:34.416Z,9.50
2018-09-27T15:37:03.841Z,9.50
2018-09-27T15:39:34.411Z,9.40
2018-09-27T15:42:04.068Z,9.40
2018-09-27T15:44:32.231Z,9.30
2018-09-27T15:47:01.323Z,9.30
2018-09-27T15:49:29.551Z,9.30
2018-09-27T15:51:57.527Z,9.30
2018-09-27T15:54:25.837Z,9.10
2018-09-27T15:56:53.980Z,9.10
2018-09-27T15:59:22.151Z,9.00
2018-09-27T16:01:50.299Z,8.90
2018-09-27T16:04:18.904Z,8.90
2018-09-27T16:06:47.128Z,8.90
2018-09-27T16:09:16.318Z,9.00
2018-09-27T16:11:44.456Z,8.90
2018-09-27T16:14:12.534Z,8.90
2018-09-27T16:16:40.902Z,8.90
2018-09-27T16:19:09.324Z,8.70
2018-09-27T16:21:37.460Z,8.60
2018-09-27T16:24:05.751Z,8.60
2018-09-27T16:26:34.803Z,8.70
2018-09-27T16:29:03.280Z,8.70
2018-09-27T16:31:32.418Z,8.40
2018-09-27T16:34:01.202Z,8.40
2018-09-27T16:36:29.347Z,8.50
2018-09-27T16:38:57.436Z,8.40
2018-09-27T16:41:26.345Z,8.40
2018-09-27T16:43:55.918Z,8.50
2018-09-27T16:46:24.146Z,8.50
2018-09-27T16:48:53.052Z,8.30
2018-09-27T16:51:21.131Z,8.40
2018-09-27T16:53:49.390Z,8.30
2018-09-27T16:56:18.518Z,8.40
2018-09-27T16:58:46.845Z,8.30
2018-09-27T17:01:17.422Z,8.20
2018-09-27T17:03:45.769Z,8.30
2018-09-27T17:06:15.065Z,8.30
2018-09-27T17:08:43.204Z,8.30
2018-09-27T17:11:11.371Z,8.30
2018-09-27T17:13:40.021Z,8.20
2018-09-27T17:16:08.136Z,8.20
2018-09-27T17:18:36.639Z,8.20
2018-09-27T17:21:04.726Z,8.20
2018-09-27T17:23:33.695Z,8.10
2018-09-27T17:26:02.410Z,8.10
2018-09-27T17:28:30.497Z,8.00
2018-09-27T17:30:58.552Z,7.90
2018-09-27T17:33:27.730Z,7.90
2018-09-27T17:35:55.917Z,7.90
2018-09-27T17:38:24.082Z,7.80
2018-09-27T17:40:52.271Z,7.90
2018-09-27T17:43:20.455Z,7.80
2018-09-27T17:45:48.894Z,7.70
2018-09-27T17:48:17.026Z,7.60
2018-09-27T17:50:45.504Z,7.60
2018-09-27T17:53:14.760Z,7.60
2018-09-27T17:55:43.722Z,7.60
2018-09-27T17:58:12.823Z,7.60
2018-09-27T18:00:40.903Z,7.60
2018-09-27T18:03:09.066Z,7.60
2018-09-27T18:05:37.083Z,7.60
2018-09-27T18:08:05.593Z,7.70
2018-09-27T18:10:33.899Z,7.50
2018-09-27T18:13:02.407Z,7.60
2018-09-27T18:15:31.495Z,7.60
2018-09-27T18:17:59.782Z,7.40
2018-09-27T18:20:27.816Z,7.40
2018-09-27T18:22:58.377Z,7.00
2018-09-27T18:25:26.435Z,7.00
2018-09-27T18:27:55.484Z,7.00
2018-09-27T18:30:23.659Z,6.80
2018-09-27T18:32:51.762Z,6.90
2018-09-27T18:35:19.871Z,6.90
2018-09-27T18:37:49.187Z,6.70
2018-09-27T18:40:17.486Z,6.80
2018-09-27T18:42:45.493Z,6.80
2018-09-27T18:45:13.945Z,6.90
2018-09-27T18:47:42.019Z,6.90
2018-09-27T18:50:10.662Z,6.90
2018-09-27T18:52:39.035Z,6.80
2018-09-27T18:55:07.451Z,6.80
2018-09-27T18:57:35.491Z,6.80
2018-09-27T19:00:03.821Z,6.80
2018-09-27T19:02:32.664Z,6.70
2018-09-27T19:05:00.766Z,6.70
2018-09-27T19:07:28.890Z,6.70
2018-09-27T19:09:56.994Z,6.60
2018-09-27T19:12:25.099Z,6.70
2018-09-27T19:14:53.253Z,6.60
2018-09-27T19:17:21.594Z,6.60
2018-09-27T19:19:49.722Z,6.70
2018-09-27T19:22:18.935Z,6.70
2018-09-27T19:24:47.158Z,6.60
2018-09-27T19:27:15.284Z,6.60
2018-09-27T19:29:43.311Z,6.60
2018-09-27T19:32:11.397Z,6.60
2018-09-27T19:34:39.502Z,6.50
2018-09-27T19:37:08.073Z,6.50
2018-09-27T19:39:36.081Z,6.50
2018-09-27T19:42:04.987Z,6.60
2018-09-27T19:44:33.135Z,6.60
2018-09-27T19:47:01.298Z,6.50
2018-09-27T19:49:29.850Z,6.50
2018-09-27T19:51:58.013Z,6.50
2018-09-27T19:54:26.055Z,6.50
2018-09-27T19:56:54.364Z,6.50
2018-09-27T19:59:22.577Z,6.60
2018-09-27T20:01:50.670Z,6.60
2018-09-27T20:04:18.848Z,6.50
2018-09-27T20:06:46.942Z,6.60
2018-09-27T20:09:15.516Z,6.60
2018-09-27T20:11:43.964Z,6.60
2018-09-27T20:14:12.466Z,6.70
2018-09-27T20:16:41.239Z,6.60
2018-09-27T20:19:09.762Z,6.80
2018-09-27T20:21:38.386Z,6.70
2018-09-27T20:24:06.642Z,6.80
2018-09-27T20:26:34.828Z,6.70
2018-09-27T20:29:03.030Z,6.60
2018-09-27T20:31:31.102Z,6.60
2018-09-27T20:33:59.179Z,6.60
2018-09-27T20:36:27.564Z,6.60
2018-09-27T20:38:55.638Z,6.60
2018-09-27T20:41:24.113Z,6.70
2018-09-27T20:43:52.193Z,6.70
2018-09-27T20:46:20.610Z,6.60
2018-09-27T20:48:50.652Z,6.70
2018-09-27T20:51:18.729Z,6.70
2018-09-27T20:53:46.847Z,6.60
2018-09-27T20:56:15.131Z,6.60
2018-09-27T20:58:43.350Z,6.70
2018-09-27T21:01:11.854Z,6.70
2018-09-27T21:03:40.606Z,6.70
2018-09-27T21:06:08.971Z,6.60
2018-09-27T21:08:37.239Z,6.70
2018-09-27T21:11:06.174Z,6.70
2018-09-27T21:13:35.343Z,6.80
2018-09-27T21:16:03.519Z,6.80
2018-09-27T21:18:31.786Z,6.80
2018-09-27T21:21:01.027Z,6.80
2018-09-27T21:23:29.146Z,6.80
2018-09-27T21:25:57.226Z,6.80
2018-09-27T21:28:26.167Z,6.80
2018-09-27T21:30:55.440Z,6.80
2018-09-27T21:33:23.693Z,6.80
2018-09-27T21:35:51.884Z,6.80
2018-09-27T21:38:20.287Z,6.90
2018-09-27T21:40:48.474Z,6.90
2018-09-27T21:43:16.607Z,6.80
2018-09-27T21:45:44.728Z,6.80
2018-09-27T21:48:12.803Z,6.70
2018-09-27T21:50:41.050Z,6.70
2018-09-27T21:53:09.490Z,6.70
2018-09-27T21:55:37.522Z,6.80
2018-09-27T21:58:06.048Z,6.80
2018-09-27T22:00:34.090Z,6.80
2018-09-27T22:03:02.293Z,6.70
2018-09-27T22:05:30.503Z,6.70
2018-09-27T22:07:58.669Z,6.70
2018-09-27T22:10:26.778Z,6.80
2018-09-27T22:12:54.925Z,6.80
2018-09-27T22:15:23.181Z,6.90
2018-09-27T22:17:51.241Z,6.80
2018-09-27T22:20:19.415Z,6.70
2018-09-27T22:22:47.414Z,6.60
2018-09-27T22:25:15.548Z,6.70
2018-09-27T22:27:43.764Z,6.70
2018-09-27T22:30:11.956Z,6.70
2018-09-27T22:32:40.053Z,6.70
2018-09-27T22:35:08.371Z,6.70
2018-09-27T22:37:36.460Z,6.80
2018-09-27T22:40:05.323Z,6.80
2018-09-27T22:42:33.401Z,6.80
2018-09-27T22:45:01.490Z,6.90
2018-09-27T22:47:29.642Z,6.90
2018-09-27T22:49:57.845Z,6.80
2018-09-27T22:52:25.883Z,6.90
2018-09-27T22:54:54.741Z,6.80
2018-09-27T22:57:22.932Z,6.70
2018-09-27T22:59:51.029Z,6.70
2018-09-27T23:02:20.317Z,6.70
2018-09-27T23:04:48.530Z,6.70
2018-09-27T23:07:16.698Z,6.60
2018-09-27T23:09:44.779Z,6.80
2018-09-27T23:12:12.934Z,6.80
2018-09-27T23:14:41.187Z,6.80
2018-09-27T23:17:09.327Z,6.90
2018-09-27T23:19:37.654Z,6.90
2018-09-27T23:22:06.462Z,6.90
2018-09-27T23:24:34.687Z,6.80
2018-09-27T23:27:02.827Z,6.80
2018-09-27T23:29:30.901Z,6.70
2018-09-27T23:31:58.900Z,6.80
2018-09-27T23:34:27.181Z,6.70
2018-09-27T23:36:55.317Z,6.80
2018-09-27T23:39:23.464Z,6.80
2018-09-27T23:41:52.424Z,6.70
2018-09-27T23:44:20.623Z,6.70
2018-09-27T23:46:48.660Z,6.70
2018-09-27T23:49:17.648Z,6.90
2018-09-27T23:51:45.872Z,7.00
2018-09-27T23:54:13.942Z,7.00
2018-09-27T23:56:42.155Z,7.00
2018-09-27T23:59:10.386Z,7.00
